createdAt,value
2017-07-24T00:00:11.135Z,15.00
2017-07-24T00:02:38.678Z,15.10
2017-07-24T00:05:06.211Z,15.10
2017-07-24T00:07:33.771Z,15.10
2017-07-24T00:10:01.299Z,15.00
2017-07-24T00:12:28.849Z,15.00
2017-07-24T00:14:57.145Z,14.90
2017-07-24T00:17:24.699Z,14.90
2017-07-24T00:19:52.240Z,14.90
2017-07-24T00:22:20.550Z,14.90
2017-07-24T00:24:48.074Z,14.90
2017-07-24T00:27:16.406Z,15.00
2017-07-24T00:29:43.931Z,15.00
2017-07-24T00:32:11.477Z,15.10
2017-07-24T00:34:39.006Z,15.10
2017-07-24T00:37:06.550Z,15.00
2017-07-24T00:39:34.075Z,14.90
2017-07-24T00:42:01.644Z,14.80
2017-07-24T00:44:29.182Z,14.80
2017-07-24T00:46:56.715Z,14.70
2017-07-24T00:49:24.266Z,14.60
2017-07-24T00:51:51.803Z,14.60
2017-07-24T00:54:19.359Z,14.60
2017-07-24T00:56:46.895Z,14.50
2017-07-24T00:59:14.451Z,14.50
2017-07-24T01:01:41.979Z,14.40
2017-07-24T01:04:10.307Z,14.40
2017-07-24T01:06:37.847Z,14.40
2017-07-24T01:09:05.407Z,14.50
2017-07-24T01:11:32.926Z,14.30
2017-07-24T01:14:00.481Z,14.20
2017-07-24T01:16:28.004Z,14.20
2017-07-24T01:18:55.555Z,14.20
2017-07-24T01:21:23.092Z,14.30
2017-07-24T01:23:50.647Z,14.30
2017-07-24T01:26:18.945Z,14.30
2017-07-24T01:28:46.502Z,14.30
2017-07-24T01:31:14.039Z,14.30
2017-07-24T01:33:42.351Z,14.30
2017-07-24T01:36:09.879Z,14.30
2017-07-24T01:38:38.201Z,14.20
2017-07-24T01:41:05.740Z,14.20
2017-07-24T01:43:33.307Z,14.30
2017-07-24T01:46:00.839Z,14.30
2017-07-24T01:48:29.133Z,14.20
2017-07-24T01:50:56.679Z,14.20
2017-07-24T01:53:24.204Z,14.20
2017-07-24T01:55:51.754Z,14.30
2017-07-24T01:58:19.286Z,14.30
2017-07-24T02:00:46.830Z,14.30
2017-07-24T02:03:14.346Z,14.50
2017-07-24T02:05:41.895Z,14.40
2017-07-24T02:08:09.424Z,14.30
2017-07-24T02:10:36.971Z,14.30
2017-07-24T02:13:04.503Z,14.30
2017-07-24T02:15:32.824Z,14.30
2017-07-24T02:18:00.356Z,14.30
2017-07-24T02:20:27.915Z,14.30
2017-07-24T02:22:55.446Z,14.30
2017-07-24T02:25:23.006Z,14.10
2017-07-24T02:27:50.535Z,14.10
2017-07-24T02:30:18.090Z,14.20
2017-07-24T02:32:45.615Z,14.30
2017-07-24T02:35:13.171Z,14.30
2017-07-24T02:37:40.699Z,14.30
2017-07-24T02:40:08.253Z,14.50
2017-07-24T02:42:35.783Z,14.50
2017-07-24T02:45:03.335Z,14.30
2017-07-24T02:47:30.858Z,14.40
2017-07-24T02:49:59.154Z,14.40
2017-07-24T02:52:26.698Z,14.40
2017-07-24T02:54:54.983Z,14.10
2017-07-24T02:57:22.539Z,14.10
2017-07-24T02:59:50.066Z,14.10
2017-07-24T03:02:17.613Z,14.00
2017-07-24T03:04:45.140Z,14.20
2017-07-24T03:07:12.682Z,14.50
2017-07-24T03:09:40.214Z,14.60
2017-07-24T03:12:07.769Z,14.40
2017-07-24T03:14:35.292Z,14.20
2017-07-24T03:17:02.847Z,14.20
2017-07-24T03:19:30.376Z,14.20
2017-07-24T03:21:57.926Z,14.10
2017-07-24T03:24:26.219Z,14.10
2017-07-24T03:26:53.766Z,14.10
2017-07-24T03:29:22.054Z,14.30
2017-07-24T03:31:49.618Z,14.30
2017-07-24T03:34:17.139Z,14.40
2017-07-24T03:36:44.667Z,14.20
2017-07-24T03:39:12.225Z,14.20
2017-07-24T03:41:39.756Z,14.00
2017-07-24T03:44:07.311Z,13.90
2017-07-24T03:46:34.842Z,13.70
2017-07-24T03:49:02.403Z,13.40
2017-07-24T03:51:29.947Z,13.20
2017-07-24T03:53:57.498Z,13.10
2017-07-24T03:56:25.031Z,13.10
2017-07-24T03:58:52.579Z,13.00
2017-07-24T04:01:20.115Z,12.80
2017-07-24T04:03:48.431Z,12.70
2017-07-24T04:06:15.971Z,12.70
2017-07-24T04:08:43.531Z,12.80
2017-07-24T04:11:11.063Z,12.70
2017-07-24T04:13:39.384Z,12.60
2017-07-24T04:16:06.907Z,12.60
2017-07-24T04:18:35.222Z,12.60
2017-07-24T04:21:02.751Z,12.60
2017-07-24T04:23:30.333Z,12.60
2017-07-24T04:25:57.869Z,12.60
2017-07-24T04:28:25.401Z,12.60
2017-07-24T04:30:53.019Z,12.60
2017-07-24T04:33:20.718Z,12.60
2017-07-24T04:35:48.269Z,12.60
2017-07-24T04:38:16.010Z,12.50
2017-07-24T04:40:43.579Z,12.50
2017-07-24T04:43:11.114Z,12.50
2017-07-24T04:45:38.666Z,12.50
2017-07-24T04:48:06.206Z,12.50
2017-07-24T04:50:35.086Z,12.50
2017-07-24T04:53:02.658Z,12.50
2017-07-24T04:55:30.979Z,12.50
2017-07-24T04:57:58.507Z,12.50
2017-07-24T05:00:26.162Z,12.40
2017-07-24T05:02:53.699Z,12.50
2017-07-24T05:05:21.900Z,12.50
2017-07-24T05:07:49.509Z,12.60
2017-07-24T05:10:17.070Z,12.60
2017-07-24T05:12:44.603Z,12.50
2017-07-24T05:15:12.155Z,12.50
2017-07-24T05:17:39.890Z,12.50
2017-07-24T05:20:07.442Z,12.50
2017-07-24T05:22:34.994Z,12.60
2017-07-24T05:25:02.525Z,12.50
2017-07-24T05:27:30.086Z,12.60
2017-07-24T05:29:57.615Z,12.60
2017-07-24T05:32:25.191Z,12.60
2017-07-24T05:34:52.723Z,12.70
2017-07-24T05:37:20.263Z,12.60
2017-07-24T05:39:48.574Z,12.70
2017-07-24T05:42:16.121Z,12.60
2017-07-24T05:44:44.043Z,12.70
2017-07-24T05:47:11.591Z,12.80
2017-07-24T05:49:39.121Z,12.90
2017-07-24T05:52:06.675Z,12.90
2017-07-24T05:54:34.205Z,12.90
2017-07-24T05:57:02.531Z,12.80
2017-07-24T05:59:30.059Z,12.80
2017-07-24T06:01:57.618Z,13.00
2017-07-24T06:04:25.902Z,13.20
2017-07-24T06:06:53.461Z,13.20
2017-07-24T06:09:20.994Z,13.30
2017-07-24T06:11:48.566Z,13.40
2017-07-24T06:14:16.866Z,13.30
2017-07-24T06:16:44.394Z,13.30
2017-07-24T06:19:12.715Z,13.20
2017-07-24T06:21:40.250Z,13.20
2017-07-24T06:24:07.802Z,13.30
2017-07-24T06:26:35.335Z,13.30
2017-07-24T06:29:02.881Z,13.40
2017-07-24T06:31:30.407Z,13.50
2017-07-24T06:33:57.965Z,13.50
2017-07-24T06:36:25.502Z,13.50
2017-07-24T06:38:53.819Z,13.60
2017-07-24T06:41:21.345Z,13.60
2017-07-24T06:43:48.902Z,13.30
2017-07-24T06:46:16.427Z,13.30
2017-07-24T06:48:43.974Z,13.20
2017-07-24T06:51:11.511Z,13.40
2017-07-24T06:53:39.054Z,13.40
2017-07-24T06:56:06.583Z,13.80
2017-07-24T06:58:34.907Z,14.30
2017-07-24T07:01:02.437Z,14.30
2017-07-24T07:03:29.986Z,14.80
2017-07-24T07:05:58.281Z,14.30
2017-07-24T07:08:25.812Z,14.30
2017-07-24T07:10:53.372Z,14.10
2017-07-24T07:13:21.675Z,14.10
2017-07-24T07:15:49.225Z,14.10
2017-07-24T07:18:17.523Z,14.20
2017-07-24T07:20:45.073Z,14.20
2017-07-24T07:23:12.603Z,14.10
2017-07-24T07:25:40.158Z,14.20
2017-07-24T07:28:07.687Z,14.30
2017-07-24T07:30:35.238Z,14.40
2017-07-24T07:33:02.767Z,14.00
2017-07-24T07:35:30.330Z,14.20
2017-07-24T07:37:57.854Z,14.40
2017-07-24T07:40:25.402Z,14.90
2017-07-24T07:42:52.931Z,15.10
2017-07-24T07:45:20.483Z,15.10
2017-07-24T07:47:48.007Z,14.90
2017-07-24T07:50:15.559Z,14.70
2017-07-24T07:52:43.086Z,14.70
2017-07-24T07:55:10.642Z,14.60
2017-07-24T07:57:38.165Z,14.70
2017-07-24T08:00:05.720Z,14.60
2017-07-24T08:02:33.253Z,14.50
2017-07-24T08:05:01.552Z,14.70
2017-07-24T08:07:29.867Z,14.70
2017-07-24T08:09:57.407Z,14.70
2017-07-24T08:12:24.959Z,14.90
2017-07-24T08:14:52.487Z,15.40
2017-07-24T08:17:20.036Z,15.80
2017-07-24T08:19:47.566Z,15.80
2017-07-24T08:22:15.118Z,16.00
2017-07-24T08:24:42.642Z,16.10
2017-07-24T08:27:10.963Z,16.00
2017-07-24T08:29:38.602Z,16.00
2017-07-24T08:32:06.153Z,15.90
2017-07-24T08:34:33.680Z,15.30
2017-07-24T08:37:01.230Z,15.20
2017-07-24T08:39:28.754Z,15.10
2017-07-24T08:41:56.300Z,15.20
2017-07-24T08:44:23.831Z,15.50
2017-07-24T08:46:52.190Z,16.30
2017-07-24T08:49:19.738Z,16.30
2017-07-24T08:51:47.287Z,16.50
2017-07-24T08:54:14.815Z,16.20
2017-07-24T08:56:42.370Z,16.30
2017-07-24T08:59:09.899Z,16.40
2017-07-24T09:01:38.190Z,16.10
2017-07-24T09:04:06.503Z,15.90
2017-07-24T09:06:34.025Z,15.90
2017-07-24T09:09:02.387Z,15.90
2017-07-24T09:11:29.914Z,15.80
2017-07-24T09:13:57.479Z,15.80
2017-07-24T09:16:25.011Z,15.80
2017-07-24T09:18:52.561Z,15.50
2017-07-24T09:21:20.091Z,15.50
2017-07-24T09:23:48.407Z,15.20
2017-07-24T09:26:15.936Z,15.20
2017-07-24T09:28:44.252Z,15.10
2017-07-24T09:31:11.776Z,15.10
2017-07-24T09:33:40.091Z,15.10
2017-07-24T09:36:07.654Z,15.10
2017-07-24T09:38:35.205Z,15.60
2017-07-24T09:41:02.745Z,15.90
2017-07-24T09:43:30.298Z,16.00
2017-07-24T09:45:57.822Z,16.70
2017-07-24T09:48:25.376Z,17.20
2017-07-24T09:50:52.910Z,17.10
2017-07-24T09:53:20.460Z,16.70
2017-07-24T09:55:47.982Z,16.40
2017-07-24T09:58:16.274Z,16.10
2017-07-24T10:00:43.829Z,16.10
2017-07-24T10:03:11.362Z,16.40
2017-07-24T10:05:38.917Z,16.20
2017-07-24T10:10:59.999Z,16.40
2017-07-24T10:13:27.530Z,16.80
2017-07-24T10:15:55.855Z,16.80
2017-07-24T10:18:23.384Z,16.80
2017-07-24T10:20:50.935Z,16.40
2017-07-24T10:23:18.472Z,16.20
2017-07-24T10:25:46.798Z,16.00
2017-07-24T10:28:14.318Z,16.00
2017-07-24T10:30:42.635Z,16.10
2017-07-24T10:33:10.152Z,16.10
2017-07-24T10:35:38.470Z,15.90
2017-07-24T10:38:06.002Z,15.80
2017-07-24T10:40:34.317Z,16.40
2017-07-24T10:43:01.833Z,16.40
2017-07-24T10:45:30.145Z,17.20
2017-07-24T10:47:57.674Z,17.20
2017-07-24T10:50:25.985Z,17.00
2017-07-24T10:52:53.507Z,17.00
2017-07-24T10:55:22.117Z,16.80
2017-07-24T10:57:50.509Z,17.40
2017-07-24T11:00:18.075Z,17.40
2017-07-24T11:02:45.595Z,17.60
2017-07-24T11:05:15.206Z,17.90
2017-07-24T11:07:42.758Z,17.80
2017-07-24T11:10:11.044Z,16.90
2017-07-24T11:12:38.607Z,16.90
2017-07-24T11:15:06.130Z,16.80
2017-07-24T11:17:33.686Z,16.80
2017-07-24T11:20:01.210Z,16.70
2017-07-24T11:22:28.761Z,16.70
2017-07-24T11:24:56.280Z,16.90
2017-07-24T11:27:24.595Z,16.90
2017-07-24T11:29:52.115Z,16.90
2017-07-24T11:32:20.424Z,16.90
2017-07-24T11:34:47.945Z,16.90
2017-07-24T11:37:15.498Z,17.70
2017-07-24T11:39:43.021Z,18.30
2017-07-24T11:42:10.566Z,18.70
2017-07-24T11:44:38.087Z,18.10
2017-07-24T11:47:06.402Z,17.60
2017-07-24T11:49:33.927Z,17.60
2017-07-24T11:52:02.248Z,18.30
2017-07-24T11:54:29.770Z,18.20
2017-07-24T11:56:58.090Z,17.80
2017-07-24T11:59:25.613Z,17.80
2017-07-24T12:01:53.907Z,17.40
2017-07-24T12:04:21.458Z,17.40
2017-07-24T12:06:48.979Z,17.20
2017-07-24T12:09:16.522Z,17.20
2017-07-24T12:11:44.047Z,18.10
2017-07-24T12:14:11.598Z,18.70
2017-07-24T12:16:39.120Z,19.20
2017-07-24T12:19:06.661Z,19.30
2017-07-24T12:21:34.188Z,18.50
2017-07-24T12:24:01.735Z,18.30
2017-07-24T12:26:29.264Z,18.00
2017-07-24T12:28:56.816Z,17.90
2017-07-24T12:31:24.343Z,18.50
2017-07-24T12:33:51.890Z,19.20
2017-07-24T12:36:19.418Z,19.50
2017-07-24T12:38:47.730Z,19.50
2017-07-24T12:41:15.282Z,19.40
2017-07-24T12:43:42.841Z,19.40
2017-07-24T12:46:10.368Z,19.60
2017-07-24T12:48:38.681Z,18.70
2017-07-24T12:51:06.198Z,18.60
2017-07-24T12:53:33.722Z,18.10
2017-07-24T12:56:01.274Z,17.60
2017-07-24T12:58:28.807Z,16.80
2017-07-24T13:00:56.358Z,15.90
2017-07-24T13:03:23.886Z,15.30
2017-07-24T13:05:51.434Z,15.20
2017-07-24T13:08:18.960Z,15.10
2017-07-24T13:10:46.516Z,15.00
2017-07-24T13:13:14.055Z,15.00
2017-07-24T13:15:41.604Z,15.00
2017-07-24T13:18:09.893Z,15.10
2017-07-24T13:20:37.443Z,15.10
2017-07-24T13:23:05.740Z,15.30
2017-07-24T13:25:33.291Z,15.30
2017-07-24T13:28:00.814Z,15.40
2017-07-24T13:30:28.366Z,15.50
2017-07-24T13:32:55.899Z,15.50
2017-07-24T13:35:23.463Z,16.50
2017-07-24T13:37:51.000Z,16.80
2017-07-24T13:40:18.523Z,17.20
2017-07-24T13:42:46.071Z,17.50
2017-07-24T13:45:13.599Z,17.50
2017-07-24T13:47:41.152Z,18.10
2017-07-24T13:50:08.686Z,18.70
2017-07-24T13:52:36.236Z,18.50
2017-07-24T13:55:04.526Z,17.60
2017-07-24T13:57:32.080Z,17.60
2017-07-24T13:59:59.598Z,17.10
2017-07-24T14:02:48.476Z,17.00
2017-07-24T14:05:16.002Z,16.70
2017-07-24T14:07:43.575Z,16.30
2017-07-24T14:10:11.098Z,15.50
2017-07-24T14:12:38.654Z,15.10
2017-07-24T14:15:06.186Z,14.90
2017-07-24T14:17:34.503Z,14.70
2017-07-24T14:20:02.030Z,14.60
2017-07-24T14:22:29.586Z,14.70
2017-07-24T14:24:57.882Z,14.40
2017-07-24T14:27:25.438Z,14.40
2017-07-24T14:29:52.972Z,14.40
2017-07-24T14:32:21.277Z,14.40
2017-07-24T14:34:48.826Z,14.40
2017-07-24T14:37:16.360Z,14.40
2017-07-24T14:39:43.913Z,14.40
2017-07-24T14:42:11.446Z,14.30
2017-07-24T14:44:39.009Z,14.40
2017-07-24T14:47:06.538Z,14.40
2017-07-24T14:49:34.090Z,14.60
2017-07-24T14:52:01.624Z,14.70
2017-07-24T14:54:29.952Z,14.80
2017-07-24T14:56:57.476Z,14.80
2017-07-24T14:59:25.792Z,15.00
2017-07-24T15:01:53.328Z,15.00
2017-07-24T15:04:20.887Z,15.00
2017-07-24T15:06:48.418Z,15.20
2017-07-24T15:09:16.733Z,14.90
2017-07-24T15:11:44.264Z,14.90
2017-07-24T15:14:11.815Z,15.00
2017-07-24T15:16:40.111Z,14.90
2017-07-24T15:19:07.678Z,14.90
2017-07-24T15:21:35.212Z,15.00
2017-07-24T15:24:03.535Z,15.10
2017-07-24T15:26:31.074Z,15.00
2017-07-24T15:28:58.603Z,15.20
2017-07-24T15:31:26.917Z,15.00
2017-07-24T15:33:54.450Z,14.90
2017-07-24T15:36:22.784Z,14.90
2017-07-24T15:38:50.342Z,14.90
2017-07-24T15:41:17.903Z,15.00
2017-07-24T15:43:45.439Z,15.00
2017-07-24T15:46:12.995Z,15.00
2017-07-24T15:48:40.547Z,14.90
2017-07-24T15:51:08.111Z,15.20
2017-07-24T15:53:36.734Z,15.10
2017-07-24T15:56:04.357Z,15.20
2017-07-24T15:58:31.900Z,15.20
2017-07-24T16:00:59.494Z,15.20
2017-07-24T16:03:27.026Z,15.30
2017-07-24T16:05:55.475Z,15.70
2017-07-24T16:08:23.066Z,15.80
2017-07-24T16:10:52.087Z,15.50
2017-07-24T16:13:20.832Z,15.50
2017-07-24T16:15:49.431Z,15.40
2017-07-24T16:18:19.601Z,15.20
2017-07-24T16:20:48.859Z,15.10
2017-07-24T16:23:19.195Z,15.10
2017-07-24T16:25:50.674Z,15.20
2017-07-24T16:28:18.345Z,15.50
2017-07-24T16:30:45.915Z,15.90
2017-07-24T16:33:13.530Z,15.90
2017-07-24T16:35:41.058Z,15.80
2017-07-24T16:38:08.620Z,15.80
2017-07-24T16:40:36.919Z,16.40
2017-07-24T16:43:04.478Z,16.30
2017-07-24T16:45:32.006Z,17.20
2017-07-24T16:47:59.691Z,17.90
2017-07-24T16:50:27.806Z,17.90
2017-07-24T16:52:55.870Z,18.80
2017-07-24T16:55:24.214Z,17.60
2017-07-24T16:57:52.535Z,17.00
2017-07-24T17:00:21.250Z,17.00
2017-07-24T17:02:49.614Z,16.50
2017-07-24T17:05:17.216Z,16.30
2017-07-24T17:07:44.770Z,16.30
2017-07-24T17:10:12.307Z,15.90
2017-07-24T17:12:39.873Z,15.40
2017-07-24T17:15:07.399Z,15.50
2017-07-24T17:17:34.948Z,15.20
2017-07-24T17:20:02.479Z,15.00
2017-07-24T17:22:30.043Z,15.00
2017-07-24T17:24:57.571Z,15.00
2017-07-24T17:27:25.094Z,15.00
2017-07-24T17:29:52.647Z,15.10
2017-07-24T17:32:20.178Z,15.30
2017-07-24T17:34:47.728Z,15.30
2017-07-24T17:37:15.259Z,15.20
2017-07-24T17:39:42.806Z,15.30
2017-07-24T17:42:10.334Z,15.30
2017-07-24T17:44:37.882Z,15.30
2017-07-24T17:47:05.410Z,15.20
2017-07-24T17:49:33.736Z,15.30
2017-07-24T17:52:01.258Z,15.20
2017-07-24T17:54:29.580Z,15.20
2017-07-24T17:56:57.117Z,15.20
2017-07-24T17:59:24.670Z,15.20
2017-07-24T18:01:52.206Z,15.20
2017-07-24T18:04:20.525Z,15.30
2017-07-24T18:06:48.050Z,15.20
2017-07-24T18:09:16.380Z,15.10
2017-07-24T18:11:43.911Z,15.10
2017-07-24T18:14:11.461Z,15.10
2017-07-24T18:16:38.993Z,15.10
2017-07-24T18:19:06.558Z,15.00
2017-07-24T18:21:34.855Z,15.20
2017-07-24T18:24:02.440Z,15.10
2017-07-24T18:26:29.962Z,15.10
2017-07-24T18:28:58.255Z,15.10
2017-07-24T18:31:25.834Z,15.10
2017-07-24T18:33:53.383Z,15.10
2017-07-24T18:36:20.949Z,15.00
2017-07-24T18:38:48.498Z,14.90
2017-07-24T18:41:16.056Z,15.00
2017-07-24T18:43:43.589Z,15.00
2017-07-24T18:46:11.266Z,15.00
2017-07-24T18:48:39.572Z,14.70
2017-07-24T18:51:07.123Z,14.70
2017-07-24T18:53:34.706Z,14.70
2017-07-24T18:56:02.260Z,14.60
2017-07-24T18:58:29.794Z,14.70
2017-07-24T19:00:57.496Z,14.60
2017-07-24T19:03:25.023Z,14.60
2017-07-24T19:05:52.581Z,14.50
2017-07-24T19:08:20.117Z,14.50
2017-07-24T19:10:48.435Z,14.40
2017-07-24T19:13:16.425Z,14.40
2017-07-24T19:15:43.995Z,14.30
2017-07-24T19:18:11.529Z,14.40
2017-07-24T19:20:39.503Z,14.30
2017-07-24T19:23:07.533Z,14.30
2017-07-24T19:25:35.183Z,14.30
2017-07-24T19:28:03.397Z,14.30
2017-07-24T19:30:31.879Z,14.30
2017-07-24T19:33:00.663Z,14.30
2017-07-24T19:35:28.886Z,14.20
2017-07-24T19:37:58.301Z,14.20
2017-07-24T19:40:25.864Z,14.20
2017-07-24T19:42:54.330Z,14.20
2017-07-24T19:45:21.855Z,14.20
2017-07-24T19:47:49.601Z,14.30
2017-07-24T19:50:17.619Z,14.30
2017-07-24T19:52:45.223Z,14.30
2017-07-24T19:55:12.751Z,14.30
2017-07-24T19:57:40.302Z,14.30
2017-07-24T20:00:07.825Z,14.20
2017-07-24T20:02:35.707Z,14.10
2017-07-24T20:05:03.246Z,14.00
2017-07-24T20:07:30.794Z,14.00
2017-07-24T20:09:58.331Z,13.90
2017-07-24T20:12:26.661Z,13.70
2017-07-24T20:14:54.186Z,13.70
2017-07-24T20:17:21.742Z,13.80
2017-07-24T20:19:49.274Z,13.80
2017-07-24T20:22:16.830Z,13.90
2017-07-24T20:24:44.358Z,13.80
2017-07-24T20:27:11.909Z,13.80
2017-07-24T20:29:39.449Z,13.70
2017-07-24T20:32:07.010Z,13.70
2017-07-24T20:34:34.535Z,13.80
2017-07-24T20:37:02.828Z,13.90
2017-07-24T20:39:30.395Z,13.90
2017-07-24T20:41:57.926Z,14.00
2017-07-24T20:44:25.479Z,13.90
2017-07-24T20:46:53.007Z,13.80
2017-07-24T20:49:20.570Z,13.60
2017-07-24T20:51:48.098Z,13.50
2017-07-24T20:54:15.660Z,13.40
2017-07-24T20:56:43.186Z,13.40
2017-07-24T20:59:10.751Z,13.40
2017-07-24T21:01:39.055Z,13.40
2017-07-24T21:04:06.606Z,13.40
2017-07-24T21:06:34.135Z,13.40
2017-07-24T21:09:01.701Z,13.30
2017-07-24T21:11:36.269Z,13.30
2017-07-24T21:14:04.264Z,13.30
2017-07-24T21:16:31.807Z,13.30
2017-07-24T21:18:59.358Z,13.30
2017-07-24T21:21:26.888Z,13.30
2017-07-24T21:23:54.452Z,13.30
2017-07-24T21:26:21.996Z,13.20
2017-07-24T21:28:50.328Z,13.20
2017-07-24T21:31:17.911Z,13.20
2017-07-24T21:33:45.457Z,13.20
2017-07-24T21:36:12.984Z,13.10
2017-07-24T21:38:40.560Z,13.10
2017-07-24T21:41:08.264Z,13.00
2017-07-24T21:43:35.786Z,13.00
2017-07-24T21:46:03.346Z,13.00
2017-07-24T21:48:30.879Z,13.00
2017-07-24T21:50:58.516Z,12.90
2017-07-24T21:53:26.048Z,12.80
2017-07-24T21:55:53.670Z,12.80
2017-07-24T21:58:21.203Z,12.90
2017-07-24T22:00:49.522Z,12.80
2017-07-24T22:03:17.051Z,12.80
2017-07-24T22:05:44.606Z,12.80
2017-07-24T22:08:12.899Z,12.70
2017-07-24T22:10:40.450Z,12.70
2017-07-24T22:13:07.990Z,12.70
2017-07-24T22:15:35.551Z,12.60
2017-07-24T22:18:03.078Z,12.60
2017-07-24T22:20:30.639Z,12.50
2017-07-24T22:22:58.162Z,12.50
2017-07-24T22:25:25.725Z,12.40
2017-07-24T22:27:53.254Z,12.50
2017-07-24T22:51:29.026Z,12.10
2017-07-24T22:53:56.568Z,12.10
2017-07-24T22:56:24.123Z,12.20
2017-07-24T22:58:51.651Z,12.10
2017-07-24T23:01:19.210Z,12.20
2017-07-24T23:03:46.756Z,12.10
2017-07-24T23:06:15.072Z,12.10
2017-07-24T23:08:42.612Z,12.10
2017-07-24T23:11:10.176Z,12.10
2017-07-24T23:13:37.711Z,12.10
2017-07-24T23:16:05.276Z,12.20
2017-07-24T23:18:32.816Z,12.20
2017-07-24T23:21:01.147Z,12.20
2017-07-24T23:23:28.679Z,12.20
2017-07-24T23:25:56.251Z,12.20
2017-07-24T23:28:23.781Z,12.30
2017-07-24T23:30:52.074Z,12.30
2017-07-24T23:33:19.627Z,12.30
2017-07-24T23:35:47.175Z,12.40
2017-07-24T23:38:15.498Z,12.50
2017-07-24T23:40:43.030Z,12.50
2017-07-24T23:43:10.591Z,12.40
2017-07-24T23:45:38.133Z,12.40
2017-07-24T23:48:06.456Z,12.40
2017-07-24T23:50:33.978Z,12.40
2017-07-24T23:53:01.541Z,12.50
2017-07-24T23:55:29.077Z,12.50
2017-07-24T23:57:56.630Z,12.50
